Time;durP1;ratioP1;P1;durP2;ratioP2;P2;SDS_P1;SDS_P2;PMS_P1;PMS_P2;Temp;Humidity;BMP_temperature;BMP_pressure;BME280_temperature;BME280_humidity;BME280_pressure;Samples;Min_cycle;Max_cycle;Signal;HPM_P1;HPM_P2
2023/01/07 00:00:08;;;;;;;12.20;10.88;;;15.50;89.40;;;;;;4202986;28;20121;-63
2023/01/07 00:02:52;;;;;;;16.58;11.50;;;15.60;88.90;;;;;;4201290;28;20075;-63
2023/01/07 00:05:33;;;;;;;12.57;11.35;;;15.60;88.50;;;;;;4203659;28;20490;-63
2023/01/07 00:08:14;;;;;;;13.55;12.00;;;15.70;88.30;;;;;;4209980;28;20051;-63
2023/01/07 00:10:55;;;;;;;14.13;11.57;;;15.60;88.10;;;;;;4210078;28;20070;-62
2023/01/07 00:13:38;;;;;;;12.57;11.27;;;15.70;88.10;;;;;;4209818;28;20101;-62
2023/01/07 00:16:21;;;;;;;11.82;10.65;;;15.60;88.00;;;;;;4208954;28;20059;-62
2023/01/07 00:19:04;;;;;;;13.90;11.73;;;15.60;88.10;;;;;;4209713;28;20129;-62
2023/01/07 00:21:45;;;;;;;14.15;12.23;;;15.60;88.30;;;;;;4176311;28;20134;-62
2023/01/07 00:24:26;;;;;;;13.23;11.85;;;15.60;89.40;;;;;;4164075;28;20075;-64
2023/01/07 00:27:07;;;;;;;13.33;11.67;;;15.70;88.50;;;;;;4175871;28;20075;-62
2023/01/07 00:29:49;;;;;;;11.80;10.65;;;15.70;88.20;;;;;;4175845;28;20298;-62
2023/01/07 00:34:59;;;;;;;14.13;12.63;;;15.80;87.60;;;;;;4206532;27;20380;-62
2023/01/07 00:37:52;;;;;;;12.23;11.05;;;15.90;87.50;;;;;;4206659;28;20411;-63
2023/01/07 00:40:33;;;;;;;12.65;11.45;;;15.90;87.50;;;;;;4206419;28;20059;-63
2023/01/07 00:43:14;;;;;;;12.52;11.23;;;15.90;87.50;;;;;;4190082;28;20063;-63
2023/01/07 00:45:55;;;;;;;12.13;11.02;;;16.00;87.20;;;;;;4208971;27;20051;-63
2023/01/07 00:48:36;;;;;;;11.57;10.38;;;16.10;87.00;;;;;;4223315;27;20390;-63
2023/01/07 00:51:19;;;;;;;11.98;10.90;;;16.10;86.60;;;;;;4222134;27;20059;-62
2023/01/07 00:54:00;;;;;;;12.35;11.25;;;16.10;86.40;;;;;;4223266;27;20047;-63
2023/01/07 00:56:41;;;;;;;11.93;10.65;;;16.10;86.30;;;;;;4222418;27;20055;-63
2023/01/07 00:59:22;;;;;;;10.57;9.68;;;16.10;87.20;;;;;;4214368;27;20059;-62
2023/01/07 01:02:04;;;;;;;10.90;10.00;;;16.10;86.40;;;;;;4219683;27;20077;-63
2023/01/07 01:04:45;;;;;;;10.20;9.40;;;16.10;86.40;;;;;;4222005;27;20054;-63
2023/01/07 01:07:27;;;;;;;9.50;8.68;;;16.10;86.30;;;;;;4223266;27;20055;-63
2023/01/07 01:10:10;;;;;;;9.75;8.95;;;16.20;86.30;;;;;;4213429;27;20059;-63
2023/01/07 01:12:51;;;;;;;9.70;8.90;;;16.20;86.20;;;;;;4206396;28;20048;-63
2023/01/07 01:15:32;;;;;;;9.77;8.93;;;16.20;86.10;;;;;;4217082;27;20055;-63
2023/01/07 01:18:13;;;;;;;8.82;8.10;;;16.20;85.90;;;;;;4223196;27;20370;-63
2023/01/07 01:20:54;;;;;;;9.23;8.43;;;16.30;86.60;;;;;;4220789;27;20063;-63
2023/01/07 01:23:36;;;;;;;10.48;7.45;;;16.20;85.80;;;;;;4222778;27;20059;-63
2023/01/07 01:26:18;;;;;;;9.18;8.35;;;16.20;85.80;;;;;;4220136;27;20124;-61
2023/01/07 01:28:59;;;;;;;9.73;8.93;;;16.20;85.90;;;;;;4221193;27;20050;-62
2023/01/07 01:31:40;;;;;;;10.55;9.52;;;16.20;86.00;;;;;;4222542;27;20430;-63
2023/01/07 01:34:21;;;;;;;;;;;16.10;86.20;;;;;;4220614;27;20079;-63
2023/01/07 01:37:02;;;;;;;8.75;8.05;;;16.10;86.30;;;;;;4220986;27;19935;-63
2023/01/07 01:39:45;;;;;;;9.38;8.57;;;16.00;86.60;;;;;;4221417;27;20556;-63
2023/01/07 01:42:26;;;;;;;9.30;8.52;;;16.10;87.60;;;;;;4187687;28;20396;-63
2023/01/07 01:45:09;;;;;;;9.82;9.02;;;16.10;86.60;;;;;;4208145;27;20059;-63
2023/01/07 01:47:56;;;;;;;10.38;8.27;;;16.10;86.30;;;;;;4210217;27;20069;-63
2023/01/07 01:50:42;;;;;;;8.70;8.00;;;16.20;86.20;;;;;;4201779;28;20110;-63
2023/01/07 01:53:26;;;;;;;8.40;7.70;;;16.20;86.20;;;;;;4193251;28;20059;-62
2023/01/07 01:56:12;;;;;;;8.05;7.45;;;16.30;85.90;;;;;;4193347;28;20411;-63
2023/01/07 01:58:57;;;;;;;8.52;7.72;;;16.30;85.60;;;;;;4193239;28;20062;-63
2023/01/07 02:01:38;;;;;;;9.00;8.20;;;16.40;85.40;;;;;;4193025;28;20056;-63
2023/01/07 02:04:27;;;;;;;8.52;7.82;;;16.40;85.30;;;;;;4193134;28;20194;-63
2023/01/07 02:07:12;;;;;;;8.73;8.05;;;16.40;85.30;;;;;;4193230;28;20066;-63
2023/01/07 02:10:00;;;;;;;8.20;7.60;;;16.30;85.30;;;;;;4192976;28;20051;-63
2023/01/07 02:13:03;;;;;;;7.93;7.32;;;16.30;85.40;;;;;;4192787;28;20085;-63
2023/01/07 02:15:52;;;;;;;8.70;8.00;;;16.20;85.60;;;;;;4176063;28;20059;-63
2023/01/07 02:18:45;;;;;;;9.00;8.30;;;16.20;85.90;;;;;;4177724;28;20203;-63
2023/01/07 02:21:43;;;;;;;9.15;8.38;;;16.20;86.20;;;;;;4190264;28;20761;-63
2023/01/07 02:25:00;;;;;;;7.72;7.07;;;16.30;86.00;;;;;;4211022;27;20188;-63
2023/01/07 02:28:11;;;;;;;8.52;7.88;;;16.30;85.60;;;;;;4209403;27;20181;-63
2023/01/07 02:31:19;;;;;;;8.43;7.72;;;16.40;85.40;;;;;;4200655;27;20078;-63
2023/01/07 02:34:10;;;;;;;8.18;7.53;;;16.40;85.30;;;;;;4192181;28;20048;-62
2023/01/07 02:36:56;;;;;;;8.82;8.00;;;16.30;85.30;;;;;;4192114;28;20047;-61
2023/01/07 02:39:49;;;;;;;8.80;8.10;;;16.30;85.40;;;;;;4197339;27;20051;-62
2023/01/07 02:42:40;;;;;;;8.30;7.60;;;16.30;85.60;;;;;;4208455;27;20399;-62
2023/01/07 02:45:27;;;;;;;8.38;7.68;;;16.20;85.70;;;;;;4208852;27;20055;-63
2023/01/07 02:48:12;;;;;;;8.90;7.97;;;16.20;86.10;;;;;;4209002;27;20059;-62
2023/01/07 02:50:54;;;;;;;8.57;7.88;;;16.30;86.10;;;;;;4210430;27;20058;-61
2023/01/07 02:53:36;;;;;;;9.35;8.65;;;16.30;85.70;;;;;;4209030;27;20491;-61
2023/01/07 02:56:28;;;;;;;8.00;7.40;;;16.40;85.40;;;;;;4194861;27;20055;-62
2023/01/07 02:59:37;;;;;;;8.68;7.95;;;16.40;85.20;;;;;;4192940;28;20054;-62
2023/01/07 03:02:33;;;;;;;8.55;7.95;;;16.50;85.20;;;;;;4192603;28;20166;-61
2023/01/07 03:05:32;;;;;;;8.82;8.02;;;16.50;84.90;;;;;;4186908;28;20052;-62
2023/01/07 03:08:34;;;;;;;8.93;8.20;;;16.50;84.80;;;;;;4176630;28;20811;-62
2023/01/07 03:11:18;;;;;;;8.93;8.23;;;16.50;84.70;;;;;;4188932;28;20055;-62
2023/01/07 03:14:06;;;;;;;8.88;8.10;;;16.50;84.80;;;;;;4192837;28;20043;-62
2023/01/07 03:16:53;;;;;;;9.45;8.63;;;16.50;85.00;;;;;;4193024;28;20054;-62
2023/01/07 03:19:38;;;;;;;9.13;8.32;;;16.40;85.20;;;;;;4191844;28;20063;-61
2023/01/07 03:22:21;;;;;;;9.25;8.43;;;16.50;85.00;;;;;;4191930;28;20056;-62
2023/01/07 03:25:06;;;;;;;9.10;8.30;;;16.50;84.70;;;;;;4191851;28;20039;-61
2023/01/07 03:27:50;;;;;;;8.68;7.97;;;16.60;84.50;;;;;;4192484;28;20391;-61
2023/01/07 03:30:32;;;;;;;8.50;7.90;;;16.60;84.30;;;;;;4192679;28;20106;-61
2023/01/07 03:33:17;;;;;;;8.52;7.80;;;16.70;84.30;;;;;;4192784;28;20104;-61
2023/01/07 03:36:01;;;;;;;8.77;7.88;;;16.60;84.30;;;;;;4192422;28;20067;-62
2023/01/07 03:38:44;;;;;;;9.18;8.40;;;16.60;84.40;;;;;;4192416;28;20098;-61
2023/01/07 03:44:26;;;;;;;10.10;8.88;;;16.50;84.80;;;;;;4191585;28;20182;-62
2023/01/07 03:47:09;;;;;;;8.25;7.65;;;16.50;84.90;;;;;;4173076;28;20047;-62
2023/01/07 03:49:50;;;;;;;7.82;7.10;;;16.50;84.90;;;;;;4192383;28;20392;-62
2023/01/07 03:52:30;;;;;;;8.40;7.78;;;16.50;85.00;;;;;;4190496;28;20503;-62
2023/01/07 03:55:12;;;;;;;8.13;7.47;;;16.40;85.30;;;;;;4190450;28;20407;-62
2023/01/07 03:57:55;;;;;;;8.40;7.78;;;16.50;85.20;;;;;;4190533;28;20055;-62
2023/01/07 04:00:37;;;;;;;8.90;8.20;;;16.60;84.90;;;;;;4190826;28;20514;-62
2023/01/07 04:03:26;;;;;;;8.07;7.45;;;16.60;84.60;;;;;;4190594;28;20502;-62
2023/01/07 04:06:07;;;;;;;8.13;7.43;;;16.60;84.40;;;;;;4190103;28;20051;-61
2023/01/07 04:08:50;;;;;;;8.23;7.53;;;16.60;84.30;;;;;;4190208;28;20051;-62
2023/01/07 04:11:31;;;;;;;7.95;7.20;;;16.70;84.30;;;;;;4190601;28;20177;-61
2023/01/07 04:14:13;;;;;;;8.90;8.20;;;16.70;84.20;;;;;;4190483;28;20047;-61
2023/01/07 04:16:54;;;;;;;7.97;7.30;;;16.70;84.00;;;;;;4190712;28;20102;-61
2023/01/07 04:19:37;;;;;;;9.85;7.93;;;16.70;84.00;;;;;;4190467;28;20080;-62
2023/01/07 04:22:18;;;;;;;8.88;8.13;;;16.70;84.00;;;;;;4190483;28;20179;-62
2023/01/07 04:24:59;;;;;;;9.27;8.45;;;16.60;84.20;;;;;;4191390;28;20403;-62
2023/01/07 04:27:40;;;;;;;8.63;8.03;;;16.60;84.50;;;;;;4191926;28;20093;-62
2023/01/07 04:30:22;;;;;;;;;;;16.50;84.60;;;;;;4191033;28;20059;-62
2023/01/07 04:33:03;;;;;;;10.48;8.20;;;16.50;84.90;;;;;;4190571;28;19947;-62
2023/01/07 04:35:46;;;;;;;9.10;8.20;;;16.40;85.20;;;;;;4189882;28;20141;-62
2023/01/07 04:38:28;;;;;;;9.38;7.82;;;16.40;85.40;;;;;;4191447;28;20056;-62
2023/01/07 04:41:09;;;;;;;8.93;8.07;;;16.50;85.30;;;;;;4190704;28;20549;-61
2023/01/07 04:43:50;;;;;;;10.37;8.83;;;16.50;85.00;;;;;;4190949;28;20574;-62
2023/01/07 04:46:32;;;;;;;9.27;8.40;;;16.60;84.70;;;;;;4191880;28;20043;-61
2023/01/07 04:49:14;;;;;;;10.48;9.43;;;16.60;84.60;;;;;;4191667;28;20051;-62
2023/01/07 04:51:55;;;;;;;10.48;8.20;;;16.70;84.50;;;;;;4190358;28;20063;-61
2023/01/07 04:54:36;;;;;;;8.38;7.63;;;16.70;84.10;;;;;;4191881;28;20063;-62
2023/01/07 04:57:17;;;;;;;9.85;8.95;;;16.80;83.90;;;;;;4173838;28;20084;-62
2023/01/07 04:59:58;;;;;;;9.38;8.48;;;16.80;84.60;;;;;;4175211;28;20122;-65
2023/01/07 05:02:41;;;;;;;8.93;8.10;;;16.80;83.70;;;;;;4185390;28;20052;-63
2023/01/07 05:05:24;;;;;;;8.50;7.70;;;16.70;83.80;;;;;;4185342;28;20059;-62
2023/01/07 05:08:07;;;;;;;8.48;7.72;;;16.70;84.00;;;;;;4190674;28;20511;-60
2023/01/07 05:10:49;;;;;;;8.35;7.55;;;16.60;84.20;;;;;;4190407;28;20059;-62
2023/01/07 05:13:31;;;;;;;10.40;8.52;;;16.60;84.50;;;;;;4190293;28;20051;-62
2023/01/07 05:16:13;;;;;;;8.30;7.53;;;16.60;85.40;;;;;;4190856;28;20063;-62
2023/01/07 05:18:56;;;;;;;8.10;7.30;;;16.70;84.40;;;;;;4189948;28;20056;-63
2023/01/07 05:21:38;;;;;;;8.60;7.82;;;16.70;84.20;;;;;;4192522;28;20549;-62
2023/01/07 05:24:20;;;;;;;8.43;7.38;;;16.70;84.00;;;;;;4193034;28;20063;-62
2023/01/07 05:27:01;;;;;;;8.98;8.07;;;16.70;83.90;;;;;;4193054;28;20056;-62
2023/01/07 05:29:42;;;;;;;8.18;7.47;;;16.70;83.90;;;;;;4193209;28;20055;-62
2023/01/07 05:32:23;;;;;;;8.00;7.23;;;16.70;83.90;;;;;;4190110;28;20051;-62
2023/01/07 05:35:07;;;;;;;;;;;16.70;84.10;;;;;;4193266;28;20067;-62
2023/01/07 05:37:48;;;;;;;10.88;7.28;;;16.60;84.30;;;;;;4192840;28;19978;-61
2023/01/07 05:40:29;;;;;;;7.25;6.50;;;16.60;85.50;;;;;;4193222;28;20063;-62
2023/01/07 05:43:10;;;;;;;7.90;7.20;;;16.60;84.70;;;;;;4194717;28;20511;-61
2023/01/07 05:45:51;;;;;;;7.38;6.78;;;16.60;84.50;;;;;;4181373;28;20225;-61
2023/01/07 05:48:32;;;;;;;8.97;6.83;;;16.70;84.30;;;;;;4194346;28;20059;-62
2023/01/07 05:51:14;;;;;;;7.25;6.65;;;16.70;84.10;;;;;;4193968;28;20063;-62
2023/01/07 05:53:55;;;;;;;7.97;6.80;;;16.70;84.10;;;;;;4194259;28;20056;-61
2023/01/07 05:56:36;;;;;;;6.85;6.15;;;16.70;84.00;;;;;;4194343;28;20129;-62
2023/01/07 05:59:17;;;;;;;6.68;6.18;;;16.70;84.30;;;;;;4193968;28;20056;-61
2023/01/07 06:01:58;;;;;;;6.55;5.68;;;16.70;84.30;;;;;;4193515;28;20133;-62
2023/01/07 06:04:39;;;;;;;6.88;6.00;;;16.70;84.20;;;;;;4193809;28;20055;-61
2023/01/07 06:07:22;;;;;;;6.38;5.78;;;16.80;84.10;;;;;;4175708;28;20064;-62
2023/01/07 06:10:02;;;;;;;6.32;5.60;;;16.80;84.90;;;;;;4203185;27;20055;-61
2023/01/07 06:12:43;;;;;;;7.93;6.78;;;16.80;84.00;;;;;;4210649;27;20125;-61
2023/01/07 06:15:24;;;;;;;5.85;5.25;;;16.80;84.00;;;;;;4210434;27;20217;-61
2023/01/07 06:18:05;;;;;;;5.78;5.28;;;16.90;83.90;;;;;;4208773;27;20122;-61
2023/01/07 06:20:46;;;;;;;9.77;6.00;;;16.90;83.60;;;;;;4210580;27;20517;-61
2023/01/07 06:23:30;;;;;;;6.20;5.70;;;16.90;83.40;;;;;;4210562;27;20184;-60
2023/01/07 06:26:10;;;;;;;6.18;5.32;;;16.90;83.40;;;;;;4208998;27;20058;-60
2023/01/07 06:28:51;;;;;;;5.65;5.22;;;16.90;84.30;;;;;;4210566;27;20051;-60
2023/01/07 06:31:33;;;;;;;5.82;5.13;;;16.80;83.50;;;;;;4208742;27;20070;-61
2023/01/07 06:34:14;;;;;;;6.45;5.35;;;16.80;83.80;;;;;;4210075;27;20498;-61
2023/01/07 06:36:54;;;;;;;5.57;4.97;;;16.80;83.90;;;;;;4210116;27;20128;-61
2023/01/07 06:39:37;;;;;;;5.78;4.70;;;16.90;83.60;;;;;;4210656;27;20055;-60
2023/01/07 06:42:17;;;;;;;8.40;5.40;;;16.90;83.50;;;;;;4210491;27;20058;-60
2023/01/07 06:44:58;;;;;;;5.90;5.15;;;16.90;83.50;;;;;;4209493;27;20051;-60
2023/01/07 06:47:40;;;;;;;8.23;6.00;;;16.90;83.40;;;;;;4193700;28;20384;-60
2023/01/07 06:50:21;;;;;;;5.20;4.80;;;17.00;83.30;;;;;;4193424;28;20059;-60
2023/01/07 06:53:01;;;;;;;8.00;5.15;;;16.90;83.00;;;;;;4192487;28;20055;-60
2023/01/07 06:55:49;;;;;;;5.85;5.32;;;17.00;83.10;;;;;;4193368;28;20188;-61
2023/01/07 06:58:30;;;;;;;5.55;5.05;;;16.90;83.10;;;;;;4193483;28;20441;-60
2023/01/07 07:01:11;;;;;;;6.03;4.70;;;16.90;83.30;;;;;;4193112;28;20501;-61
2023/01/07 07:03:52;;;;;;;4.90;4.50;;;16.90;83.70;;;;;;4193336;28;20050;-62
2023/01/07 07:06:33;;;;;;;5.15;4.75;;;16.80;84.20;;;;;;4192988;28;20093;-62
2023/01/07 07:09:14;;;;;;;5.90;4.78;;;16.80;84.60;;;;;;4192722;28;20058;-62
2023/01/07 07:11:56;;;;;;;5.28;4.38;;;16.80;84.30;;;;;;4193244;28;20039;-61
2023/01/07 07:14:37;;;;;;;5.20;4.35;;;16.90;84.00;;;;;;4193032;28;20048;-62
2023/01/07 07:17:17;;;;;;;5.40;4.88;;;16.90;83.70;;;;;;4193011;28;20064;-62
2023/01/07 07:19:58;;;;;;;5.00;4.38;;;17.00;83.70;;;;;;4192660;28;20115;-62
2023/01/07 07:22:45;;;;;;;4.95;4.35;;;17.00;83.60;;;;;;4192556;28;20098;-62
2023/01/07 07:25:26;;;;;;;5.15;4.72;;;17.00;83.40;;;;;;4191824;28;20051;-61
2023/01/07 07:28:08;;;;;;;6.25;4.63;;;17.00;83.30;;;;;;4192239;28;20052;-61
2023/01/07 07:30:49;;;;;;;5.38;4.32;;;17.00;83.30;;;;;;4190754;28;20195;-61
2023/01/07 07:33:30;;;;;;;8.57;4.00;;;16.90;83.30;;;;;;4192095;28;20464;-61
2023/01/07 07:36:11;;;;;;;4.53;3.92;;;16.90;83.10;;;;;;4191026;28;20055;-61
2023/01/07 07:38:52;;;;;;;9.32;4.93;;;16.80;83.00;;;;;;4191352;28;20114;-62
2023/01/07 07:41:33;;;;;;;5.35;4.10;;;16.80;83.10;;;;;;4176180;28;20455;-62
2023/01/07 07:44:21;;;;;;;6.03;4.18;;;16.70;83.20;;;;;;4186293;28;20047;-62
2023/01/07 07:47:02;;;;;;;4.93;4.43;;;16.70;83.10;;;;;;4176187;28;20056;-62
2023/01/07 07:49:43;;;;;;;8.13;4.20;;;16.60;84.10;;;;;;4176345;28;20130;-61
2023/01/07 07:52:24;;;;;;;5.95;4.47;;;16.60;83.20;;;;;;4176082;28;20067;-62
2023/01/07 07:55:05;;;;;;;4.60;4.20;;;16.70;82.90;;;;;;4191414;28;20051;-61
2023/01/07 07:58:01;;;;;;;6.60;4.45;;;16.70;82.20;;;;;;4191478;28;20118;-61
2023/01/07 08:00:43;;;;;;;4.07;3.70;;;16.80;81.80;;;;;;4192264;28;20059;-61
2023/01/07 08:03:23;;;;;;;9.55;2.45;;;16.80;81.60;;;;;;4191619;28;20407;-62
2023/01/07 08:06:05;;;;;;;4.22;3.47;;;16.80;81.40;;;;;;4192144;28;20129;-61
2023/01/07 08:08:46;;;;;;;;;;;16.80;80.90;;;;;;4192730;28;20407;-62
2023/01/07 08:11:27;;;;;;;4.20;3.75;;;16.80;80.80;;;;;;4179526;28;20340;-63
2023/01/07 08:14:09;;;;;;;3.05;2.75;;;16.80;81.40;;;;;;4191777;28;20051;-62
2023/01/07 08:16:51;;;;;;;5.45;2.75;;;16.80;80.50;;;;;;4192114;28;20117;-65
2023/01/07 08:19:32;;;;;;;3.05;2.72;;;16.80;80.60;;;;;;4191991;28;20125;-62
2023/01/07 08:22:13;;;;;;;6.90;3.75;;;16.70;80.50;;;;;;4185057;28;20051;-61
2023/01/07 08:24:54;;;;;;;3.93;3.63;;;16.70;80.70;;;;;;4191878;28;20060;-62
2023/01/07 08:27:34;;;;;;;3.78;3.15;;;16.60;80.80;;;;;;4187965;28;20171;-61
2023/01/07 08:30:16;;;;;;;3.97;3.67;;;16.50;80.90;;;;;;4175552;28;20118;-61
2023/01/07 08:32:58;;;;;;;3.57;3.30;;;16.50;81.10;;;;;;4175536;28;20048;-61
2023/01/07 08:35:39;;;;;;;2.85;2.53;;;16.40;81.20;;;;;;4205893;27;20458;-62
2023/01/07 08:38:20;;;;;;;4.05;3.60;;;16.30;81.40;;;;;;4208824;27;20051;-62
2023/01/07 08:41:01;;;;;;;3.53;2.55;;;16.30;81.60;;;;;;4207291;27;20403;-62
2023/01/07 08:43:43;;;;;;;3.72;3.45;;;16.20;81.80;;;;;;4191038;27;20059;-62
2023/01/07 08:46:25;;;;;;;2.70;2.50;;;16.20;82.00;;;;;;4174125;28;20114;-62
2023/01/07 08:49:07;;;;;;;4.00;2.37;;;16.10;82.20;;;;;;4181270;28;20125;-62
2023/01/07 08:51:47;;;;;;;3.47;2.80;;;16.10;82.50;;;;;;4191778;28;20340;-62
2023/01/07 08:54:29;;;;;;;2.95;2.10;;;16.10;82.60;;;;;;4191487;28;20051;-62
2023/01/07 08:57:09;;;;;;;3.20;2.85;;;16.00;82.70;;;;;;4196229;27;20063;-62
2023/01/07 08:59:50;;;;;;;4.63;3.10;;;15.90;82.80;;;;;;4211651;27;20051;-62
2023/01/07 09:02:31;;;;;;;5.20;3.30;;;15.90;83.00;;;;;;4211687;27;20522;-62
2023/01/07 09:05:14;;;;;;;3.35;2.67;;;15.90;83.20;;;;;;4183739;27;20079;-61
2023/01/07 09:07:56;;;;;;;2.88;2.53;;;15.80;83.20;;;;;;4178879;28;20043;-61
2023/01/07 09:10:37;;;;;;;3.33;3.08;;;15.80;83.40;;;;;;4196180;28;20500;-61
2023/01/07 09:13:18;;;;;;;3.17;2.65;;;15.80;83.60;;;;;;4190420;28;20590;-61
2023/01/07 09:15:59;;;;;;;7.50;3.10;;;15.80;83.80;;;;;;4177561;28;20060;-61
2023/01/07 09:18:40;;;;;;;3.92;2.90;;;15.70;83.80;;;;;;4187808;28;20565;-61
2023/01/07 09:21:23;;;;;;;3.95;2.80;;;15.70;83.90;;;;;;4186450;28;20079;-60
2023/01/07 09:24:04;;;;;;;3.60;2.92;;;15.70;84.10;;;;;;4176909;28;20403;-62
2023/01/07 09:26:45;;;;;;;2.22;2.13;;;15.70;84.10;;;;;;4176372;28;20407;-61
2023/01/07 09:29:26;;;;;;;7.68;4.00;;;15.60;84.10;;;;;;4185960;28;20055;-62
2023/01/07 09:32:07;;;;;;;4.30;3.38;;;15.60;84.20;;;;;;4163068;28;20090;-62
2023/01/07 09:34:48;;;;;;;2.40;2.28;;;15.60;84.20;;;;;;4169966;28;21059;-61
2023/01/07 09:37:31;;;;;;;5.47;2.95;;;15.60;84.30;;;;;;4170060;28;20583;-61
2023/01/07 09:40:23;;;;;;;5.38;3.00;;;15.60;84.40;;;;;;4160213;28;20102;-61
2023/01/07 09:43:07;;;;;;;;;;;15.60;84.40;;;;;;4166957;28;20060;-62
2023/01/07 09:45:51;;;;;;;4.97;3.08;;;15.50;85.20;;;;;;4163309;28;19932;-63
2023/01/07 09:48:36;;;;;;;3.60;3.30;;;15.50;84.30;;;;;;4161559;28;20056;-64
2023/01/07 09:51:21;;;;;;;3.50;3.00;;;15.50;84.40;;;;;;4164668;28;20580;-64
2023/01/07 09:54:20;;;;;;;5.07;2.40;;;15.50;84.40;;;;;;4175029;28;20136;-63
2023/01/07 09:57:02;;;;;;;2.25;2.05;;;15.50;84.40;;;;;;4160697;28;20504;-63
2023/01/07 09:59:43;;;;;;;3.10;2.30;;;15.50;84.50;;;;;;4170259;28;20377;-63
2023/01/07 10:02:39;;;;;;;2.25;2.05;;;15.40;84.40;;;;;;4158662;28;20098;-63
2023/01/07 10:05:34;;;;;;;4.85;2.67;;;15.40;84.60;;;;;;4168166;28;20480;-63
2023/01/07 10:08:26;;;;;;;2.05;1.95;;;15.40;84.50;;;;;;4159445;28;20053;-63
2023/01/07 10:11:22;;;;;;;2.67;2.47;;;15.40;84.40;;;;;;4169135;28;20496;-63
2023/01/07 10:14:26;;;;;;;2.63;2.42;;;15.40;84.60;;;;;;4161812;28;20083;-63
2023/01/07 10:17:20;;;;;;;2.35;2.10;;;15.50;84.70;;;;;;4174292;28;20507;-63
2023/01/07 10:20:09;;;;;;;3.13;2.47;;;15.60;84.20;;;;;;4173503;28;20055;-63
2023/01/07 10:22:55;;;;;;;3.08;2.15;;;15.80;83.20;;;;;;4188988;28;20404;-61
2023/01/07 10:25:40;;;;;;;2.22;2.03;;;16.10;82.10;;;;;;4186006;28;20060;-61
2023/01/07 10:28:28;;;;;;;2.67;1.98;;;16.30;81.00;;;;;;4180210;28;20052;-62
2023/01/07 10:31:19;;;;;;;2.58;2.10;;;16.50;80.30;;;;;;4190932;28;20162;-61
2023/01/07 10:34:00;;;;;;;2.43;2.23;;;16.70;79.20;;;;;;4187741;28;20534;-61
2023/01/07 10:36:54;;;;;;;2.40;2.20;;;16.90;78.30;;;;;;4179655;28;20128;-61
2023/01/07 10:39:47;;;;;;;2.17;2.08;;;17.00;77.50;;;;;;4173062;28;20048;-61
2023/01/07 10:42:33;;;;;;;3.67;2.03;;;17.10;77.00;;;;;;4175075;28;20044;-61
2023/01/07 10:45:37;;;;;;;4.45;1.90;;;17.10;76.50;;;;;;4187353;28;20067;-61
2023/01/07 10:48:54;;;;;;;2.33;1.90;;;17.10;76.10;;;;;;4190292;28;20071;-61
2023/01/07 10:52:03;;;;;;;1.88;1.70;;;17.10;75.80;;;;;;4126152;28;20088;-62
2023/01/07 10:55:02;;;;;;;1.92;1.73;;;17.00;75.60;;;;;;4190215;28;20474;-62
2023/01/07 10:57:43;;;;;;;1.80;1.70;;;17.00;75.60;;;;;;4181164;28;20199;-66
2023/01/07 11:00:26;;;;;;;0.73;0.73;;;17.00;75.80;;;;;;4185900;28;20427;-63
2023/01/07 11:03:18;;;;;;;2.05;1.88;;;17.00;75.80;;;;;;4173898;28;20059;-63
2023/01/07 11:06:02;;;;;;;;;;;17.00;75.60;;;;;;4188843;28;20055;-64
2023/01/07 11:08:43;;;;;;;2.78;1.63;;;17.00;75.50;;;;;;4189687;28;20382;-62
2023/01/07 11:11:24;;;;;;;2.25;1.60;;;16.90;75.30;;;;;;4174672;28;20154;-62
2023/01/07 11:14:12;;;;;;;1.25;1.15;;;16.90;75.30;;;;;;4189976;28;20047;-62
2023/01/07 11:17:05;;;;;;;1.98;1.27;;;16.90;76.30;;;;;;4179829;28;21172;-62
2023/01/07 11:19:51;;;;;;;1.63;1.52;;;16.80;75.50;;;;;;4185361;28;20063;-62
2023/01/07 11:22:34;;;;;;;1.38;1.30;;;16.70;75.60;;;;;;4183089;28;20097;-63
2023/01/07 11:25:27;;;;;;;3.75;1.63;;;16.60;75.80;;;;;;4174339;28;20175;-63
2023/01/07 11:28:18;;;;;;;3.95;1.42;;;16.60;76.30;;;;;;4175652;28;20134;-64
2023/01/07 11:31:00;;;;;;;1.40;1.38;;;16.50;77.30;;;;;;4180299;28;20062;-64
2023/01/07 11:33:47;;;;;;;4.18;1.60;;;16.50;77.90;;;;;;4176701;28;20145;-64
2023/01/07 11:36:43;;;;;;;1.48;1.38;;;16.50;78.20;;;;;;4184079;28;20067;-63
2023/01/07 11:39:29;;;;;;;1.48;1.38;;;16.50;78.30;;;;;;4173963;28;20546;-64
2023/01/07 11:45:18;;;;;;;1.33;1.20;;;16.50;78.70;;;;;;4181813;28;20570;-63
2023/01/07 11:48:02;;;;;;;1.63;1.48;;;16.60;78.70;;;;;;4180562;28;20052;-63
2023/01/07 11:50:56;;;;;;;1.85;1.42;;;16.70;78.60;;;;;;4187330;28;20059;-63
2023/01/07 11:53:39;;;;;;;2.45;1.40;;;16.70;78.20;;;;;;4180523;28;20056;-63
2023/01/07 11:56:24;;;;;;;1.40;1.35;;;16.70;78.60;;;;;;4184775;28;20055;-63
2023/01/07 11:59:31;;;;;;;2.05;1.48;;;16.70;78.50;;;;;;4174738;28;20102;-63
2023/01/07 12:02:24;;;;;;;1.52;1.42;;;16.60;78.40;;;;;;4178356;28;20059;-62
2023/01/07 12:05:21;;;;;;;1.10;1.10;;;16.60;78.90;;;;;;4179094;28;20089;-63
2023/01/07 12:08:04;;;;;;;1.20;1.10;;;16.50;78.90;;;;;;4176843;28;20052;-63
2023/01/07 12:10:46;;;;;;;1.25;1.25;;;16.50;79.40;;;;;;4177119;28;20400;-63
2023/01/07 12:13:27;;;;;;;1.42;1.33;;;16.50;79.70;;;;;;4188146;28;20601;-62
2023/01/07 12:16:08;;;;;;;;;;;16.60;79.60;;;;;;4173592;28;20056;-64
2023/01/07 12:19:00;;;;;;;1.30;1.20;;;16.70;79.50;;;;;;4189239;28;20017;-64
2023/01/07 12:21:50;;;;;;;1.35;1.25;;;16.70;79.30;;;;;;4175181;28;20118;-64
2023/01/07 12:25:10;;;;;;;1.40;1.30;;;16.70;79.20;;;;;;4186647;28;20059;-64
2023/01/07 12:28:02;;;;;;;2.15;1.55;;;16.70;79.00;;;;;;4171875;28;20736;-64
2023/01/07 12:31:09;;;;;;;1.70;1.60;;;16.70;79.10;;;;;;4174113;28;20060;-64
2023/01/07 12:34:04;;;;;;;1.75;1.65;;;16.60;79.20;;;;;;4173090;28;20052;-65
2023/01/07 12:36:49;;;;;;;1.50;1.40;;;16.70;79.70;;;;;;4187895;28;20138;-65
2023/01/07 12:39:37;;;;;;;2.03;1.75;;;16.70;79.50;;;;;;4170515;28;20056;-64
2023/01/07 12:42:23;;;;;;;1.70;1.60;;;16.70;79.30;;;;;;4164441;28;20134;-65
2023/01/07 12:45:15;;;;;;;1.40;1.27;;;16.70;79.50;;;;;;4170299;28;20052;-65
2023/01/07 12:48:01;;;;;;;1.70;1.40;;;16.80;79.90;;;;;;4155610;28;20060;-68
2023/01/07 12:50:46;;;;;;;1.77;1.20;;;16.80;80.40;;;;;;4156956;28;20181;-68
2023/01/07 12:53:33;;;;;;;1.20;1.15;;;16.80;80.40;;;;;;4167230;28;20064;-66
2023/01/07 12:56:17;;;;;;;1.40;1.27;;;16.80;81.00;;;;;;4162023;28;20396;-66
2023/01/07 12:59:09;;;;;;;1.25;1.20;;;16.90;81.40;;;;;;4164050;28;20072;-63
2023/01/07 13:01:56;;;;;;;1.73;1.30;;;16.90;81.30;;;;;;4157036;28;20145;-63
2023/01/07 13:04:45;;;;;;;1.55;1.45;;;17.00;81.20;;;;;;4156718;28;20191;-63
2023/01/07 13:07:37;;;;;;;1.10;1.10;;;17.00;81.00;;;;;;4156963;28;20057;-63
2023/01/07 13:10:24;;;;;;;2.22;1.45;;;17.10;80.80;;;;;;4156422;28;20072;-63
2023/01/07 13:13:12;;;;;;;1.23;1.05;;;17.20;80.30;;;;;;4160914;28;20396;-64
2023/01/07 13:15:56;;;;;;;1.63;1.08;;;17.20;80.00;;;;;;4177146;28;20056;-65
2023/01/07 13:18:37;;;;;;;1.80;1.23;;;17.20;80.60;;;;;;4172831;28;20187;-66
2023/01/07 13:21:19;;;;;;;2.42;1.30;;;17.20;79.80;;;;;;4173839;28;20743;-66
2023/01/07 13:24:13;;;;;;;1.10;1.10;;;17.20;80.10;;;;;;4172696;28;20072;-66
2023/01/07 13:27:08;;;;;;;1.52;1.42;;;17.10;80.10;;;;;;4172621;28;20060;-67
2023/01/07 13:29:59;;;;;;;1.20;1.10;;;17.20;80.40;;;;;;4172894;28;20059;-66
2023/01/07 13:33:04;;;;;;;1.17;1.13;;;17.30;80.10;;;;;;4188915;28;20392;-63
2023/01/07 13:36:02;;;;;;;0.93;0.93;;;17.40;79.80;;;;;;4172641;28;20055;-64
2023/01/07 13:39:18;;;;;;;1.67;1.10;;;17.40;79.50;;;;;;4183453;28;20400;-59
2023/01/07 13:42:16;;;;;;;1.55;1.45;;;17.50;78.90;;;;;;4122228;28;20102;-59
2023/01/07 13:45:01;;;;;;;3.80;1.63;;;17.60;78.90;;;;;;4188327;28;20051;-59
2023/01/07 13:47:46;;;;;;;1.45;1.40;;;17.60;78.70;;;;;;4180038;28;20408;-59
2023/01/07 13:50:35;;;;;;;2.25;1.27;;;17.60;78.50;;;;;;4177735;28;20192;-65
2023/01/07 13:53:32;;;;;;;1.35;1.27;;;17.60;78.40;;;;;;4182470;28;20110;-65
2023/01/07 13:56:37;;;;;;;1.77;1.23;;;17.60;78.00;;;;;;4185505;28;20483;-63
2023/01/07 13:59:30;;;;;;;1.20;1.10;;;17.60;78.10;;;;;;4175595;28;20056;-63
2023/01/07 14:02:20;;;;;;;1.80;1.20;;;17.60;78.50;;;;;;4183960;28;20056;-64
2023/01/07 14:05:06;;;;;;;1.77;0.90;;;17.60;78.50;;;;;;4174936;28;20056;-64
2023/01/07 14:07:51;;;;;;;1.33;1.33;;;17.50;78.30;;;;;;4190838;28;20047;-63
2023/01/07 14:10:34;;;;;;;2.05;1.50;;;17.50;78.50;;;;;;4159512;28;20056;-63
2023/01/07 14:13:29;;;;;;;2.22;1.48;;;17.40;78.70;;;;;;4159300;28;20060;-64
2023/01/07 14:16:15;;;;;;;1.13;1.00;;;17.40;79.80;;;;;;4167027;28;20110;-64
2023/01/07 14:19:11;;;;;;;1.42;1.30;;;17.30;79.30;;;;;;4174856;28;20052;-64
2023/01/07 14:22:05;;;;;;;1.63;1.50;;;17.20;79.00;;;;;;4174922;28;20060;-64
2023/01/07 14:25:17;;;;;;;1.33;1.30;;;17.10;79.30;;;;;;4179600;28;20129;-63
2023/01/07 14:28:19;;;;;;;2.53;1.50;;;17.00;80.10;;;;;;4175831;28;20047;-63
2023/01/07 14:31:00;;;;;;;1.00;1.00;;;17.10;80.50;;;;;;4174785;28;20052;-63